KROW/ROW METAR and TAF weather

Enter ICAO airport designator
Station Type Date Time Source
KROW METAR 2020/04/09 09:51 UTC NOAA

KROW 090951Z AUTO 17005KT 10SM CLR 15/02 A2998 RMK AO2 SLP094 T01500017


Station Type Date Time Source
KROW Decoded METAR 2020/04/09 09:51 UTC NOAA

ROSWELL INDUSTRIAL AIR CENTR, NM, United States (KROW) 33-18N 104-32W 1112M
Apr 09, 2020 - 05:51 AM EDT / 2020.04.09 0951 UTC
Wind: from the S (170 degrees) at 6 MPH (5 KT):0
Visibility: 10 mile(s):0
Sky conditions: clear
Temperature: 59.0 F (15.0 C)
Dew Point: 35.1 F (1.7 C)
Relative Humidity: 40%
Pressure (altimeter): 29.98 in. Hg (1015 hPa)
ob: KROW 090951Z AUTO 17005KT 10SM CLR 15/02 A2998 RMK AO2 SLP094 T01500017
cycle: 10

Station Type Date Time Source
KROW TAF 2020/04/09 06:33 UTC NOAA

TAF KROW 090531Z 0906/1006 22006KT P6SM BKN200
FM091200 VRB05KT P6SM BKN110
FM091900 16008KT P6SM VCSH BKN080
FM100100 19008KT P6SM FEW100

Example: see airport list